Alyssa Ann — WBG4515 — position and weather

sailwx.info

Track history (hours):
 
Tides and Currents Weather Stations Pressure Air Temp Water Temp Dewpoint Dewpoint Depression Visibility Wind Speed Wind Dir Waves Ship Positions

Alyssa Ann

Owner: Harley Marine Services, INC, SEATTLE, WA. More information available from US FCC via Universal Licensing System and Coast Guard Vessel Documentation Center.

Last reported at 2017-Nov-23 20:18 UTC. Time now 2017-Nov-24 07:29 UTC.
Position N 47°16' W 122°24'.

MMSI: 366979708.

Date/timePositionNaut miles runAvg speedWind from/ knotsBaromVisibWave heightAir tempDewpointWater temp
2017-Nov-23 20:18N 47°16' W 122°24'1 4.3
2017-Nov-23 20:00N 47°17' W 122°25'  
2017-Nov-19 23:49N 47°17' W 122°25'0 1.3
2017-Nov-19 23:30N 47°17' W 122°25'1 0.2
2017-Nov-19 16:09N 47°16' W 122°24'1 1.2
2017-Nov-19 15:18N 47°17' W 122°25'1 0.0
2017-Nov-18 06:13N 47°16' W 122°24'0 0.2
2017-Nov-18 03:38N 47°17' W 122°25'0 0.0
2017-Nov-18 03:08N 47°17' W 122°25'0 0.0
2017-Nov-18 00:26N 47°17' W 122°25'0 0.0
2017-Nov-17 23:32N 47°17' W 122°25'0 0.0
2017-Nov-17 23:31N 47°17' W 122°25'1 0.3
2017-Nov-17 20:53N 47°16' W 122°24'0 0.0
2017-Nov-16 08:48N 47°16' W 122°24'0 0.1
2017-Nov-16 02:01N 47°16' W 122°24'0 5.3
2017-Nov-16 02:00N 47°16' W 122°24'0 0.0
2017-Nov-15 07:15N 47°16' W 122°24'0 0.3
2017-Nov-15 07:00N 47°16' W 122°24'1 0.9
2017-Nov-15 06:19N 47°17' W 122°23'0 0.0
2017-Nov-15 05:38N 47°17' W 122°23'1 3.0
2017-Nov-15 05:19N 47°17' W 122°25'1 2.0
2017-Nov-15 05:00N 47°17' W 122°25'1 1.9
2017-Nov-15 04:30N 47°18' W 122°27'2 3.5
2017-Nov-15 04:00N 47°19' W 122°28'2 3.8
2017-Nov-15 03:30N 47°21' W 122°26'2 4.1
2017-Nov-15 03:00N 47°22' W 122°24'2 3.6
2017-Nov-15 02:28N 47°23' W 122°22'1 2.8
2017-Nov-15 02:01N 47°24' W 122°23'2 3.2
2017-Nov-15 01:31N 47°26' W 122°24'1 3.0
2017-Nov-15 01:01N 47°27' W 122°25'1 2.9
2017-Nov-15 00:31N 47°28' W 122°26'2 3.0
2017-Nov-15 00:01N 47°30' W 122°26'1 2.7
2017-Nov-14 23:30N 47°31' W 122°27'1 2.4
2017-Nov-14 23:00N 47°32' W 122°27'1 2.8
2017-Nov-14 22:30N 47°34' W 122°27'3 5.1
2017-Nov-14 22:00N 47°36' W 122°28'3 5.1
2017-Nov-14 21:30N 47°39' W 122°28'3 5.3
2017-Nov-14 21:00N 47°41' W 122°28'3 5.4
2017-Nov-14 20:30N 47°44' W 122°27'3 6.2
2017-Nov-14 20:00N 47°47' W 122°27'3 6.1
2017-Nov-14 19:30N 47°50' W 122°28'3 6.1
2017-Nov-14 19:00N 47°53' W 122°29'3 6.3
2017-Nov-14 18:30N 47°56' W 122°32'27 5.1
2017-Nov-14 13:08N 48°21' W 122°46'1 5.9
2017-Nov-14 12:58N 48°22' W 122°46'3 6.0
2017-Nov-14 12:28N 48°25' W 122°45'3 6.0
2017-Nov-14 12:00N 48°28' W 122°45'3 6.3
2017-Nov-14 11:30N 48°31' W 122°45'3 5.9
2017-Nov-14 11:00N 48°34' W 122°45'3 5.3
2017-Nov-14 10:30N 48°37' W 122°45'3 5.3
2017-Nov-14 10:00N 48°39' W 122°44'2 4.8
2017-Nov-14 09:30N 48°42' W 122°44'4 5.1
2017-Nov-14 08:45N 48°45' W 122°47'10 6.1
2017-Nov-14 07:12N 48°50' W 122°60'2 6.4
2017-Nov-14 06:52N 48°51' W 123°02'2 6.2
2017-Nov-14 06:30N 48°52' W 123°05'3 6.0
2017-Nov-14 06:00N 48°54' W 123°09'3 5.6
2017-Nov-14 05:30N 48°56' W 123°12'5 5.9
2017-Nov-14 04:41N 48°59' W 123°17'2 6.0
2017-Nov-14 04:23N 49°01' W 123°19'7 5.3
2017-Nov-14 03:08N 49°07' W 123°24'1 5.5
2017-Nov-14 03:00N 49°07' W 123°23'3 5.7
2017-Nov-14 02:30N 49°10' W 123°23'3 5.2
2017-Nov-14 01:59N 49°13' W 123°22'2 5.1
2017-Nov-14 01:30N 49°15' W 123°21'2 4.9
2017-Nov-14 01:00N 49°18' W 123°20'3 5.3
2017-Nov-14 00:30N 49°19' W 123°16'3 5.9
2017-Nov-14 00:00N 49°19' W 123°12'3 6.0
2017-Nov-13 23:30N 49°18' W 123°07'2 4.9
2017-Nov-13 23:00N 49°18' W 123°04'3 5.3
2017-Nov-13 22:30N 49°18' W 122°60'1 0.9
2017-Nov-13 21:42N 49°18' W 122°59'  
Track history (hours):
 
Tides and Currents Weather Stations Pressure Air Temp Water Temp Dewpoint Dewpoint Depression Visibility Wind Speed Wind Dir Waves Ship Positions

Alyssa Ann

Owner: Harley Marine Services, INC, SEATTLE, WA. More information available from US FCC via Universal Licensing System and Coast Guard Vessel Documentation Center.

Last reported at 2017-Nov-23 20:18 UTC. Time now 2017-Nov-24 07:29 UTC.
Position N 47°16' W 122°24'.

MMSI: 366979708.

Date/timePositionNaut miles runAvg speedWind from/ knotsBaromVisibWave heightAir tempDewpointWater temp
2017-Nov-23 20:18N 47°16' W 122°24'1 4.3
2017-Nov-23 20:00N 47°17' W 122°25'  
2017-Nov-19 23:49N 47°17' W 122°25'0 1.3
2017-Nov-19 23:30N 47°17' W 122°25'1 0.2
2017-Nov-19 16:09N 47°16' W 122°24'1 1.2
2017-Nov-19 15:18N 47°17' W 122°25'1 0.0
2017-Nov-18 06:13N 47°16' W 122°24'0 0.2
2017-Nov-18 03:38N 47°17' W 122°25'0 0.0
2017-Nov-18 03:08N 47°17' W 122°25'0 0.0
2017-Nov-18 00:26N 47°17' W 122°25'0 0.0
2017-Nov-17 23:32N 47°17' W 122°25'0 0.0
2017-Nov-17 23:31N 47°17' W 122°25'1 0.3
2017-Nov-17 20:53N 47°16' W 122°24'0 0.0
2017-Nov-16 08:48N 47°16' W 122°24'0 0.1
2017-Nov-16 02:01N 47°16' W 122°24'0 5.3
2017-Nov-16 02:00N 47°16' W 122°24'0 0.0
2017-Nov-15 07:15N 47°16' W 122°24'0 0.3
2017-Nov-15 07:00N 47°16' W 122°24'1 0.9
2017-Nov-15 06:19N 47°17' W 122°23'0 0.0
2017-Nov-15 05:38N 47°17' W 122°23'1 3.0
2017-Nov-15 05:19N 47°17' W 122°25'1 2.0
2017-Nov-15 05:00N 47°17' W 122°25'1 1.9
2017-Nov-15 04:30N 47°18' W 122°27'2 3.5
2017-Nov-15 04:00N 47°19' W 122°28'2 3.8
2017-Nov-15 03:30N 47°21' W 122°26'2 4.1
2017-Nov-15 03:00N 47°22' W 122°24'2 3.6
2017-Nov-15 02:28N 47°23' W 122°22'1 2.8
2017-Nov-15 02:01N 47°24' W 122°23'2 3.2
2017-Nov-15 01:31N 47°26' W 122°24'1 3.0
2017-Nov-15 01:01N 47°27' W 122°25'1 2.9
2017-Nov-15 00:31N 47°28' W 122°26'2 3.0
2017-Nov-15 00:01N 47°30' W 122°26'1 2.7
2017-Nov-14 23:30N 47°31' W 122°27'1 2.4
2017-Nov-14 23:00N 47°32' W 122°27'1 2.8
2017-Nov-14 22:30N 47°34' W 122°27'3 5.1
2017-Nov-14 22:00N 47°36' W 122°28'3 5.1
2017-Nov-14 21:30N 47°39' W 122°28'3 5.3
2017-Nov-14 21:00N 47°41' W 122°28'3 5.4
2017-Nov-14 20:30N 47°44' W 122°27'3 6.2
2017-Nov-14 20:00N 47°47' W 122°27'3 6.1
2017-Nov-14 19:30N 47°50' W 122°28'3 6.1
2017-Nov-14 19:00N 47°53' W 122°29'3 6.3
2017-Nov-14 18:30N 47°56' W 122°32'27 5.1
2017-Nov-14 13:08N 48°21' W 122°46'1 5.9
2017-Nov-14 12:58N 48°22' W 122°46'3 6.0
2017-Nov-14 12:28N 48°25' W 122°45'3 6.0
2017-Nov-14 12:00N 48°28' W 122°45'3 6.3
2017-Nov-14 11:30N 48°31' W 122°45'3 5.9
2017-Nov-14 11:00N 48°34' W 122°45'3 5.3
2017-Nov-14 10:30N 48°37' W 122°45'3 5.3
2017-Nov-14 10:00N 48°39' W 122°44'2 4.8
2017-Nov-14 09:30N 48°42' W 122°44'4 5.1
2017-Nov-14 08:45N 48°45' W 122°47'10 6.1
2017-Nov-14 07:12N 48°50' W 122°60'2 6.4
2017-Nov-14 06:52N 48°51' W 123°02'2 6.2
2017-Nov-14 06:30N 48°52' W 123°05'3 6.0
2017-Nov-14 06:00N 48°54' W 123°09'3 5.6
2017-Nov-14 05:30N 48°56' W 123°12'5 5.9
2017-Nov-14 04:41N 48°59' W 123°17'2 6.0
2017-Nov-14 04:23N 49°01' W 123°19'7 5.3
2017-Nov-14 03:08N 49°07' W 123°24'1 5.5
2017-Nov-14 03:00N 49°07' W 123°23'3 5.7
2017-Nov-14 02:30N 49°10' W 123°23'3 5.2
2017-Nov-14 01:59N 49°13' W 123°22'2 5.1
2017-Nov-14 01:30N 49°15' W 123°21'2 4.9
2017-Nov-14 01:00N 49°18' W 123°20'3 5.3
2017-Nov-14 00:30N 49°19' W 123°16'3 5.9
2017-Nov-14 00:00N 49°19' W 123°12'3 6.0
2017-Nov-13 23:30N 49°18' W 123°07'2 4.9
2017-Nov-13 23:00N 49°18' W 123°04'3 5.3
2017-Nov-13 22:30N 49°18' W 122°60'1 0.9
2017-Nov-13 21:42N 49°18' W 122°59'  

Dump ship's entire track history